Terminal Aerodrome Forecast
Issued by NWS Buffalo, NY

Home | Current Version | Previous Version | Text Only | Print | Product List | Glossary On
Versions: 1 2 3 4 5 6 7 8 9 10 11 12 13 14 15 16 17 18 19 20 21 22 23
354
FTUS41 KBUF 231736
TAFART
TAF
KART 231736Z 2318/2418 25010KT P6SM SKC
     FM240000 20006KT P6SM SCT250
     FM240200 00000KT P6SM BKN200
     FM240600 04007KT P6SM BKN060
     FM241400 04010KT P6SM BKN040
     FM241700 04010KT P6SM BKN200=

USA.gov is the U.S. government's official web portal to all federal, state and local government web resources and services.